Etusivu
METAR-TAF:

METAR-TAF

Lentoasemat :

Tabuk, Saudi-Arabia

Leveyspiiri: 28-22N, Pituuspiiri: 036-36E, korkeus merenpinnasta: 778 m

Tämänhetkinen sää

Tämä raportti tehtiin 1 tunti ja 14 minuuttia sitten, kello 16.00 UTC
Tuuli 16 kn lännestä/lounaasta
Lämpötila 13°C
Kosteus 41%
Ilmanpaine 1012 hPa
Näkyvyys: 7000 m
Muutamia pilviä 4000 ft:n korkeudessa

METAR: OETB 061600Z 25016KT 7000 FEW040 13/00 Q1012 NOSIG

Aika: 20:14 (17:14 UTC)

Sääennuste

Tämä raportti tehtiin 6 tuntia ja 14 minuuttia sitten, kello 11.00 UTC
Ennuste voimassa 06. päivästä klo 12 UTC - 07. päivään klo 18 UTC
Tuuli 20 kn lännestä/lounaasta
Näkyvyys: 7000 m
Ajoittain
06. päivästä klo 12 UTC - 06. päivään klo 18 UTC
Näkyvyys: 3000 m
pölymyrsky
Tulossa
06. päivästä klo 20 UTC - 06. päivään klo 22 UTC
Tuuli 12 kn lännestä/luoteesta

TAF: OETB 061100Z 0612/0718 24020KT 7000 NSC TEMPO 0612/0618 3000 BLDU BECMG 0620/0622 30012KT

Säähavainnot ja -ennusteet yli 4000 lentoasemalta (METAR- ja TAF-raportit).

Käytössä olevat sääasemat on merkitty karttaan keltaisilla ja punaisilla pisteillä.

Aseta hiiri pisteen päälle nähdäksesi sääaseman nimen.

Klikkaa sitten nähdäksesi säähavainnot ja -ennusteet.

Kartan vaihtaminen: klikkaa mustalla rastilla varustettuja vihreitä pisteitä, niin voit zoomata sisään; viivalla varustettua vihreää pistettä, niin voit zoomata ulos tai vihreitä nuolia, niin pääset viereisille kartoille.


METAR-TAF: